Weather observations for the past three days for
Sacramento, McClellan Airfield Airport
Metric (Imperial)
Date Time (pdt) Wind (kph) Vis. (km) Weather Sky Cond. Temperature (ºC) Relative Humidity Wind Chill (°C) Heat Index (°C) Pressure Precipitation (cm)
Air Dwpt 6 hour altimeter (cm) sea level (mb) 1 hr 3 hr 6 hr
Max. Min.
04 02:35 SE 11 16.09 Mostly Cloudy BKN043 12 10 88% 76.05 0.0
04 02:15 SE 9 16.09 Fair CLR 12 10 88% 76.05 0.0
04 01:55 SE 11 16.09 A Few Clouds FEW042 12 10 88% 76.05 0.0
04 01:35 S 11 16.09 Mostly Cloudy BKN042 12 10 88% 76.05 0.0
04 01:15 SE 7 16.09 Partly Cloudy SCT041 12 10 88% 76.05 0.0
04 00:55 SE 11 16.09 Fair CLR 12 10 88% 76.05 0.0
04 00:35 SE 7 16.09 Fair CLR 13 10 82% 76.05 0.0
04 00:15 SE 9 16.09 Fair CLR 13 10 82% 76.05 0.0
03 23:55 S 7 16.09 Fair CLR 13 10 82% 76.05 0.0
03 23:35 S 9 16.09 Partly Cloudy SCT070 14 9 72% 76.05 0.0
03 23:15 S 11 16.09 Overcast OVC070 14 9 72% 76.02 0.0
03 22:55 S 9 16.09 Mostly Cloudy BKN070 15 9 68% 76.02 0.0
03 22:35 SW 11 16.09 Fair CLR 15 9 68% 76.02 0.0
03 21:55 SW 9 G 20 16.09 Fair CLR 15 9 68% 76 0.0
03 21:35 SW 11 G 20 16.09 A Few Clouds FEW060 16 9 63% 75.97 0.0
03 21:15 S 17 16.09 Overcast OVC060 16 10 68% 75.95 0.0
03 20:55 S 17 16.09 Overcast OVC060 16 10 68% 75.95 0.0
03 20:15 S 17 16.09 Partly Cloudy SCT060 17 10 64% 75.9 0.0
03 19:55 S 17 G 28 16.09 Fair CLR 17 9 60% 75.9 0.0
03 19:35 S 19 G 28 16.09 Fair CLR 18 9 56% 75.87 0.0
03 19:15 S 19 G 28 16.09 Fair CLR 18 9 56% 75.87 0.0
03 18:55 S 24 16.09 Fair CLR 19 9 52% 75.87 0.0
03 18:35 SW 20 G 30 16.09 Fair CLR 19 9 52% 75.84 0.0
03 18:15 S 20 16.09 Fair CLR 20 9 49% 75.84 0.0
03 17:55 S 20 G 31 16.09 Fair CLR 19 9 52% 75.84 0.0
03 17:35 S 20 16.09 Fair CLR 20 9 49% 75.84 0.0
03 17:15 SW 17 G 30 16.09 Fair CLR 20 9 49% 75.84 0.0
03 16:55 SW 19 16.09 Fair CLR 20 9 49% 75.87 0.0
03 16:35 SW 15 G 28 16.09 Fair CLR 20 9 49% 75.87 0.0
03 16:15 SW 15 G 26 16.09 Fair CLR 20 9 49% 75.87 0.0
03 15:55 SW 20 16.09 Fair CLR 20 9 49% 75.87 0.0
03 15:35 SW 17 G 37 16.09 Fair CLR 20 10 53% 75.84 0.0
03 15:15 SW 20 16.09 Fair CLR 19 10 56% 75.87 0.0
03 14:55 SW 20 G 30 16.09 Fair CLR 19 10 56% 75.87 0.0
03 14:35 S 20 G 33 16.09 Fair CLR 19 9 52% 75.9 0.0
03 14:15 SW 22 G 33 16.09 Fair CLR 19 10 56% 75.9 0.0
03 13:55 S 19 G 31 16.09 Fair CLR 19 10 56% 75.9 0.0
03 13:35 SW 24 16.09 Fair CLR 19 9 52% 75.9 0.0
03 13:15 SW 26 16.09 Fair CLR 18 9 56% 75.9 0.0
03 12:55 SW 20 G 31 16.09 Fair CLR 18 9 56% 75.92 0.0
03 12:35 S 24 G 35 16.09 Fair CLR 18 9 56% 75.92 0.0
03 12:15 S 22 16.09 Fair CLR 18 9 56% 75.92 0.0
03 11:55 S 24 G 35 16.09 Fair CLR 17 9 60% 75.92 0.0
03 11:35 S 20 G 33 16.09 Fair CLR 17 9 60% 75.92 0.0
03 11:15 S 24 G 37 16.09 Fair CLR 17 10 64% 75.92 0.0
03 10:55 S 26 G 37 16.09 Fair CLR 16 10 68% 75.95 0.0
03 10:35 S 22 16.09 Fair CLR 16 10 68% 75.95 0.0
03 10:15 S 24 16.09 Fair CLR 16 10 68% 75.92 0.0
03 09:55 S 24 G 41 16.09 Fair CLR 16 10 68% 75.92 0.0
03 09:35 S 22 16.09 Fair CLR 16 10 68% 75.9 0.0
03 09:15 S 19 G 30 16.09 Fair CLR 15 10 72% 75.9 0.0
03 08:55 S 20 16.09 Fair CLR 14 10 77% 75.9 0.0
03 08:35 S 20 16.09 Fair CLR 14 10 77% 75.87 0.0
03 08:15 S 15 G 26 16.09 Fair CLR 14 10 77% 75.84 0.0
03 07:55 S 17 16.09 Fair CLR 13 10 82% 75.84 0.0
03 07:35 S 15 16.09 Fair CLR 13 10 82% 75.82 0.0
03 07:15 S 17 16.09 Fair CLR 13 10 82% 75.79 0.0
03 06:55 S 17 16.09 Fair CLR 12 10 88% 75.77 0.0
03 06:35 S 15 16.09 Fair CLR 12 10 88% 75.77 0.0
03 06:15 S 15 16.09 Fair CLR 12 10 88% 75.74 0.0
03 05:55 S 15 16.09 Fair CLR 12 10 88% 75.72 0.0
03 05:35 S 17 16.09 Fair CLR 12 10 88% 75.72 0.0
03 05:15 S 13 16.09 Fair CLR 12 10 88% 75.72 0.0
03 04:55 SE 17 16.09 Partly Cloudy SCT120 12 10 88% 75.72 0.0
03 04:35 S 17 16.09 Mostly Cloudy BKN120 12 10 88% 75.72 0.0
03 04:15 S 17 16.09 Mostly Cloudy BKN120 12 10 88% 75.72 0.0
03 03:55 S 17 16.09 A Few Clouds FEW120 12 10 88% 75.72 0.0
03 03:15 SE 13 16.09 A Few Clouds FEW120 12 10 88% 75.72 0.0
03 02:55 S 13 16.09 A Few Clouds FEW120 12 10 88% 75.72 0.0
03 02:35 S 15 G 24 16.09 Mostly Cloudy BKN120 13 10 82% 75.72 0.0
03 02:15 S 19 16.09 A Few Clouds FEW120 13 10 82% 75.74 0.0
03 01:55 S 17 16.09 Fair CLR 13 10 82% 75.74 0.0
03 01:35 S 13 16.09 Fair CLR 13 10 82% 75.77 0.0
03 01:15 S 15 16.09 Fair CLR 13 10 82% 75.79 0.0
03 00:55 SE 13 16.09 Fair CLR 13 10 82% 75.79 0.0
03 00:35 S 17 16.09 Fair CLR 13 10 82% 75.79 0.0
03 00:15 S 11 16.09 Fair CLR 13 10 82% 75.82 0.0
02 23:55 S 15 16.09 A Few Clouds FEW120 13 10 82% 75.82 0.0
02 23:35 S 13 16.09 Fair CLR 13 10 82% 75.82 0.0
02 23:15 S 13 16.09 Fair CLR 14 10 77% 75.82 0.0
02 22:55 S 13 16.09 Fair CLR 14 10 77% 75.82 0.0
02 22:35 S 15 16.09 Fair CLR 14 10 77% 75.82 0.0
02 22:15 S 13 16.09 Fair CLR 14 10 77% 75.82 0.0
02 21:55 S 13 16.09 Fair CLR 15 10 72% 75.82 0.0
02 21:35 S 17 16.09 Fair CLR 15 10 72% 75.79 0.0
02 20:55 S 13 G 24 16.09 Fair CLR 16 10 68% 75.77 0.0
02 20:35 S 11 G 24 16.09 Fair CLR 16 11 72% 75.74 0.0
02 20:15 S 17 16.09 Fair CLR 17 11 68% 75.74 0.0
02 19:55 S 13 16.09 Fair CLR 18 11 64% 75.74 0.0
02 19:35 S 17 16.09 Fair CLR 18 11 64% 75.74 0.0
02 19:15 S 15 16.09 Fair CLR 19 11 60% 75.72 0.0
02 18:55 SW 17 16.09 Fair CLR 19 11 60% 75.72 0.0
02 18:35 S 15 16.09 Fair CLR 20 11 56% 75.72 0.0
02 18:15 SW 17 16.09 Fair CLR 21 11 53% 75.72 0.0
02 17:55 S 13 16.09 Fair CLR 21 11 53% 75.72 0.0
02 17:35 S 17 16.09 Fair CLR 21 11 53% 75.72 0.0
02 17:15 S 17 G 26 16.09 Fair CLR 21 11 53% 75.72 0.0
02 16:35 S 15 16.09 Fair CLR 22 11 50% 75.74 0.0
02 16:15 Vrbl 11 16.09 Fair CLR 22 11 50% 75.77 0.0
02 15:55 S 19 16.09 Fair CLR 22 11 50% 75.79 0.0
02 15:35 SW 15 16.09 Fair CLR 22 11 50% 75.79 0.0
02 15:15 S 15 16.09 Fair CLR 22 12 53% 75.82 0.0
02 14:55 S 13 16.09 Fair CLR 21 12 57% 75.84 0.0
02 14:35 S 17 16.09 Fair CLR 21 12 57% 75.87 0.0
02 14:15 S 15 G 24 16.09 Fair CLR 20 11 56% 75.9 0.0
02 13:55 S 19 16.09 Fair CLR 20 12 60% 75.92 0.0
02 13:35 S 17 16.09 Fair CLR 19 12 64% 75.92 0.0
02 13:15 S 20 16.09 Fair CLR 18 12 68% 75.92 0.0
02 12:55 S 19 16.09 Fair CLR 18 12 68% 75.92 0.0
02 12:35 S 15 G 26 16.09 Fair CLR 18 12 68% 75.95 0.0
02 12:15 S 19 16.09 Fair CLR 18 12 68% 75.95 0.0
02 11:55 S 20 16.09 Fair CLR 17 12 73% 75.97 0.0
02 11:35 S 15 G 28 16.09 Fair CLR 16 12 77% 75.95 0.0
02 11:15 S 19 16.09 Fair CLR 16 12 77% 75.95 0.0
02 10:55 S 20 16.09 Fair CLR 16 12 77% 75.97 0.0
02 10:35 S 20 16.09 Fair CLR 16 12 77% 75.97 0.0
02 10:15 S 20 16.09 Fair CLR 15 12 82% 75.97 0.0
02 09:55 S 22 G 31 16.09 Fair CLR 15 12 82% 75.95 0.0
02 09:35 S 19 G 30 16.09 Fair CLR 15 11 77% 75.95 0.0
02 09:15 S 19 16.09 Fair CLR 15 11 77% 75.95 0.0
02 08:55 S 20 16.09 Fair CLR 16 11 72% 75.92 0.0
02 08:30 S 19 16.09 Fair CLR 15 11 77% 75.92 0.0
02 08:15 S 17 G 30 16.09 Fair CLR 15 11 77% 75.92 0.0
02 07:55 S 17 16.09 Fair CLR 14 11 82% 75.9 0.0
02 07:35 S 15 16.09 Fair CLR 14 11 82% 75.9 0.0
02 07:15 S 17 16.09 Fair CLR 13 11 88% 75.9 0.0
02 06:55 S 13 16.09 Fair CLR 13 11 88% 75.87 0.0
02 06:35 S 17 16.09 Fair CLR 13 11 88% 75.84 0.0
02 06:15 S 15 16.09 Fair CLR 13 11 88% 75.84 0.0
02 05:55 S 13 16.09 Fair CLR 13 11 88% 75.84 0.0
02 05:35 S 17 16.09 Fair CLR 12 11 94% 75.82 0.0
02 05:15 S 15 16.09 Fair CLR 12 11 94% 75.82 0.0
02 04:55 S 15 16.09 Fair CLR 12 11 94% 75.82 0.0
02 04:35 S 13 16.09 Fair CLR 13 11 88% 75.84 0.0
02 04:15 S 15 16.09 Fair CLR 13 11 88% 75.84 0.0
02 03:55 SE 19 16.09 Fair CLR 13 11 88% 75.82 0.0
02 03:35 S 17 16.09 Fair CLR 13 11 88% 75.84 0.0
02 03:15 SE 19 16.09 Fair CLR 13 11 88% 75.84 0.0
02 02:55 S 15 16.09 Fair CLR 14 11 82% 75.84 0.0
02 02:35 S 17 16.09 NULL NULL 14 11 82% 75.84 0.0
02 02:15 Calm 16.09 Fair CLR 0 0 0% 0 0.0
02 01:55 SE 15 16.09 Fair CLR 14 12 88% 75.84 0.0
02 01:35 SE 17 16.09 Fair CLR 15 12 82% 75.87 0.0
02 01:15 SE 15 16.09 Fair CLR 15 12 82% 75.87 0.0
02 00:55 S 15 16.09 Fair CLR 15 12 82% 75.87 0.0
02 00:35 SE 19 16.09 Fair CLR 16 13 83% 75.87 0.0
02 00:15 S 15 16.09 NULL NULL 16 13 83% 75.87 0.0
01 23:55 S 15 16.09 NULL NULL 0 0 0% 75.87 0.0
01 23:15 SE 15 16.09 Fair CLR 17 13 77% 75.84 0.0
01 22:55 S 19 16.09 NULL NULL 17 14 83% 75.87 0.0
01 22:35 S 19 16.09 Fair CLR 18 14 78% 75.84 0.0
01 22:15 S 15 16.09 Fair CLR 19 14 73% 75.84 0.0
01 21:55 S 15 16.09 Fair CLR 19 14 73% 75.84 0.0
01 21:35 S 15 16.09 Fair CLR 20 14 69% 75.82 0.0
01 21:15 S 13 16.09 Fair CLR 21 15 69% 75.82 0.0
01 20:55 S 15 16.09 Fair CLR 22 14 61% 75.79 0.0
01 20:35 S 15 G 24 16.09 Fair CLR 22 15 65% 75.77 0.0
01 20:15 S 19 16.09 Fair CLR 23 14 57% 75.77 0.0
01 19:55 S 19 16.09 Fair CLR 24 12 47% 25 75.74 0.0
01 19:35 S 15 16.09 Fair CLR 25 12 44% 26 75.74 0.0
01 19:15 S 15 16.09 Fair CLR 26 13 45% 26 75.74 0.0
01 18:55 S 13 16.09 Fair CLR 26 13 45% 26 75.74 0.0
01 18:35 S 13 16.09 Fair CLR 27 13 42% 27 75.74 0.0
01 18:15 S 13 16.09 Fair CLR 27 13 42% 27 75.74 0.0
01 17:55 S 9 16.09 Fair CLR 28 14 42% 28 75.77 0.0
01 17:35 S 13 16.09 Fair CLR 28 14 42% 28 75.77 0.0
01 17:15 SW 9 14.48 Unknown Precip CLR 28 13 40% 28 75.77 0.0
01 16:55 S 9 16.09 Fair CLR 29 13 37% 28 75.77 0.0
01 16:35 S 9 16.09 Fair CLR 28 13 40% 28 75.79 0.0
01 16:15 Calm 16.09 Fair CLR 28 13 40% 28 75.79 0.0
01 15:55 SW 7 16.09 Fair CLR 28 13 40% 28 75.82 0.0
01 15:35 Calm 16.09 Fair CLR 28 13 40% 28 75.84 0.0
01 14:55 Calm 16.09 Fair CLR 27 12 39% 27 75.9 0.0
01 14:35 Vrbl 7 16.09 Fair CLR 27 13 42% 27 75.92 0.0
01 14:15 Vrbl 7 16.09 Fair CLR 27 13 42% 27 75.92 0.0
01 13:55 Calm 16.09 Fair CLR 26 13 45% 26 75.95 0.0
01 13:35 Vrbl 9 16.09 Fair CLR 26 13 45% 26 75.95 0.0
01 13:15 S 15 16.09 Fair CLR 25 13 47% 26 75.97 0.0
01 12:55 SW 11 16.09 Fair CLR 25 14 51% 26 76 0.0
01 12:35 S 11 16.09 Fair CLR 24 13 50% 25 76 0.0
01 12:15 S 13 16.09 Fair CLR 24 13 50% 25 76.02 0.0
01 11:55 Vrbl 7 16.09 Fair CLR 23 13 53% 76.05 0.0
01 11:35 Vrbl 7 16.09 Fair CLR 22 13 57% 76.05 0.0
01 11:15 S 11 16.09 Fair CLR 22 13 57% 76.05 0.0
01 10:55 Calm 16.09 Fair CLR 21 13 60% 76.07 0.0
01 10:35 Vrbl 7 16.09 Fair CLR 20 12 60% 76.05 0.0
01 10:15 S 11 4.02 Fair with Haze CLR 20 12 60% 76.05 0.0
01 09:55 S 13 16.09 Fair CLR 19 12 64% 76.05 0.0
01 09:35 SE 9 14.48 Fair CLR 19 13 68% 76.07 0.0
01 09:15 Vrbl 13 16.09 Fair CLR 18 12 68% 76.07 0.0
01 08:55 S 13 16.09 Fair CLR 17 12 73% 76.07 0.0
01 08:35 S 11 16.09 Fair CLR 16 12 77% 76.07 0.0
01 08:15 SE 11 16.09 Fair CLR 15 12 82% 76.05 0.0
01 07:55 S 11 16.09 Fair CLR 15 12 82% 76.05 0.0
01 07:35 S 11 16.09 Fair CLR 14 12 88% 76.02 0.0
01 07:15 S 11 16.09 Fair CLR 14 12 88% 76 0.0
01 06:55 S 11 16.09 Fair CLR 13 12 94% 76 0.0
01 06:35 S 11 16.09 Fair CLR 13 11 88% 75.97 0.0
01 06:15 S 9 16.09 Fair CLR 13 11 88% 75.95 0.0
01 05:55 S 11 16.09 Fair CLR 13 11 88% 75.95 0.0
01 05:35 S 11 16.09 Fair CLR 13 11 88% 75.92 0.0
01 05:15 S 11 16.09 Fair CLR 13 11 88% 75.92 0.0
01 04:55 S 11 16.09 Fair CLR 13 11 88% 75.92 0.0
01 04:35 S 11 16.09 Fair CLR 13 11 88% 75.92 0.0
01 04:15 SE 9 16.09 Fair CLR 13 11 88% 75.92 0.0
01 03:55 SE 11 16.09 Fair CLR 14 11 82% 75.92 0.0
01 03:35 SE 11 16.09 Fair CLR 14 11 82% 75.92 0.0
01 03:15 SE 13 16.09 Fair CLR 14 12 88% 75.92 0.0
01 02:55 SE 13 16.09 Fair CLR 14 12 88% 75.92 0.0
Date Time (pdt) Wind (kph) Vis. (km) Weather Sky Cond. Air Dwpt Max. Min. Relative Humidity Wind Chill (°C) Heat Index (°C) altimeter (cm) sea level (mb) 1 hr 3 hr 6 hr
6 hour
Temperature (ºC) Pressure Precipitation (cm)